Wetterdaten: Woche 01.02.16 - 07.02.16 (KW5)
Datum Zeit Temp. A. Feuchte A. Luftdruck Regen Wind Richtung Sonnenschein ET UV Solar Taupunkt Windchill Windben Empfang
01.02.2016 00:00 2,7 C 98 % 1012,4 hPa 2,0 l/m 2,2 km/h (1 Bft) N-NO 0,00 h 0,000 mm 0,0 UV-I 0 W/m 2,4 C 2,7 C 5,6 km/h (1 Bft) 97,79 %
01.02.2016 01:00 2,7 C 98 % 1012,3 hPa 2,0 l/m 2,4 km/h (1 Bft) O 0,00 h 0,000 mm 0,0 UV-I 0 W/m 2,5 C 2,7 C 6,0 km/h (2 Bft) 99,41 %
01.02.2016 02:00 3,1 C 99 % 1012,7 hPa 2,0 l/m 1,6 km/h (1 Bft) S 0,00 h 0,000 mm 0,0 UV-I 0 W/m 3,0 C 3,1 C 4,8 km/h (1 Bft) 97,81 %
01.02.2016 03:00 3,5 C 99 % 1012,7 hPa 3,4 l/m 1,3 km/h (1 Bft) O-NO 0,00 h 0,000 mm 0,0 UV-I 0 W/m 3,3 C 3,5 C 3,5 km/h (1 Bft) 99,33 %
01.02.2016 04:00 3,9 C 99 % 1013,2 hPa 1,6 l/m 1,1 km/h (1 Bft) N-NO 0,00 h 0,000 mm 0,0 UV-I 0 W/m 3,8 C 3,9 C 3,6 km/h (1 Bft) 97,78 %
01.02.2016 05:00 5,9 C 99 % 1014,4 hPa 0,6 l/m 5,6 km/h (1 Bft) W-NW 0,00 h 0,000 mm 0,0 UV-I 0 W/m 5,8 C 5,2 C 13,5 km/h (3 Bft) 99,08 %
01.02.2016 06:00 8,8 C 99 % 1015,5 hPa 2,0 l/m 11,9 km/h (2 Bft) W 0,00 h 0,000 mm 0,0 UV-I 0 W/m 8,7 C 5,4 C 22,0 km/h (4 Bft) 98,08 %
01.02.2016 07:00 10,4 C 99 % 1016,3 hPa 3,4 l/m 17,3 km/h (3 Bft) SW 0,00 h 0,000 mm 0,0 UV-I 5 W/m 10,3 C 4,9 C 28,6 km/h (4 Bft) 98,87 %
01.02.2016 08:00 10,9 C 97 % 1017,2 hPa 0,6 l/m 22,8 km/h (4 Bft) W-SW 0,00 h 0,000 mm 0,0 UV-I 14 W/m 10,4 C 3,7 C 38,1 km/h (5 Bft) 98,43 %
01.02.2016 09:00 11,6 C 91 % 1018,6 hPa 0,4 l/m 25,4 km/h (4 Bft) W-SW 0,00 h 0,025 mm 0,0 UV-I 22 W/m 10,3 C 4,0 C 44,5 km/h (6 Bft) 98,45 %
01.02.2016 10:00 11,8 C 89 % 1019,6 hPa 0,0 l/m 21,5 km/h (4 Bft) W-SW 0,00 h 0,026 mm 0,0 UV-I 33 W/m 10,0 C 5,2 C 35,7 km/h (5 Bft) 98,74 %
01.02.2016 11:00 11,3 C 91 % 1020,3 hPa 0,0 l/m 22,9 km/h (4 Bft) SW 0,00 h 0,051 mm 0,2 UV-I 51 W/m 9,9 C 4,2 C 35,0 km/h (5 Bft) 98,33 %
01.02.2016 12:00 10,7 C 95 % 1020,7 hPa 1,2 l/m 20,0 km/h (4 Bft) SW 0,00 h 0,050 mm 0,0 UV-I 51 W/m 9,9 C 4,2 C 31,5 km/h (5 Bft) 98,78 %
01.02.2016 13:00 11,4 C 90 % 1020,8 hPa 0,2 l/m 20,2 km/h (4 Bft) SW 0,00 h 0,026 mm 0,7 UV-I 115 W/m 9,8 C 5,1 C 33,7 km/h (5 Bft) 98,31 %
01.02.2016 14:00 12,4 C 81 % 1021,1 hPa 0,0 l/m 24,5 km/h (4 Bft) SW 0,00 h 0,076 mm 0,5 UV-I 77 W/m 9,1 C 5,2 C 40,9 km/h (6 Bft) 98,95 %
01.02.2016 15:00 13,6 C 72 % 1021,1 hPa 0,0 l/m 21,1 km/h (4 Bft) W-SW 0,58 h 0,102 mm 0,4 UV-I 133 W/m 8,6 C 7,7 C 35,9 km/h (5 Bft) 98,36 %
01.02.2016 16:00 13,5 C 70 % 1021,1 hPa 0,0 l/m 20,6 km/h (4 Bft) W-SW 0,25 h 0,127 mm 0,0 UV-I 35 W/m 8,0 C 7,6 C 35,8 km/h (5 Bft) 99,04 %
01.02.2016 17:00 12,5 C 72 % 1021,2 hPa 0,0 l/m 16,6 km/h (3 Bft) W-SW 0,00 h 0,102 mm 0,0 UV-I 0 W/m 7,7 C 7,7 C 27,4 km/h (4 Bft) 98,05 %
01.02.2016 18:00 10,9 C 79 % 1021,4 hPa 0,0 l/m 8,4 km/h (2 Bft) SW 0,00 h 0,050 mm 0,0 UV-I 0 W/m 7,3 C 9,6 C 14,4 km/h (3 Bft) 99,30 %
01.02.2016 19:00 9,4 C 85 % 1021,7 hPa 0,0 l/m 9,4 km/h (2 Bft) SW 0,00 h 0,025 mm 0,0 UV-I 0 W/m 7,0 C 7,4 C 14,8 km/h (3 Bft) 97,60 %
01.02.2016 20:00 9,5 C 84 % 1022,0 hPa 0,0 l/m 12,3 km/h (3 Bft) SW 0,00 h 0,026 mm 0,0 UV-I 0 W/m 6,9 C 5,7 C 19,0 km/h (3 Bft) 99,64 %
01.02.2016 21:00 9,6 C 83 % 1022,4 hPa 0,0 l/m 11,2 km/h (2 Bft) SW 0,00 h 0,025 mm 0,0 UV-I 0 W/m 6,9 C 6,5 C 18,6 km/h (3 Bft) 98,14 %
01.02.2016 22:00 9,6 C 83 % 1023,0 hPa 0,0 l/m 11,4 km/h (2 Bft) SW 0,00 h 0,026 mm 0,0 UV-I 0 W/m 6,9 C 6,4 C 19,8 km/h (4 Bft) 99,36 %
01.02.2016 23:00 9,7 C 83 % 1023,2 hPa 0,0 l/m 13,2 km/h (3 Bft) W-SW 0,00 h 0,025 mm 0,0 UV-I 0 W/m 6,9 C 5,6 C 21,8 km/h (4 Bft) 98,22 %
02.02.2016 00:00 9,5 C 83 % 1023,3 hPa 0,0 l/m 13,6 km/h (3 Bft) W-SW 0,00 h 0,000 mm 0,0 UV-I 0 W/m 6,7 C 5,2 C 22,1 km/h (4 Bft) 98,93 %
02.02.2016 01:00 8,7 C 85 % 1023,5 hPa 0,0 l/m 7,1 km/h (2 Bft) SW 0,00 h 0,025 mm 0,0 UV-I 0 W/m 6,3 C 8,1 C 13,6 km/h (3 Bft) 98,01 %
02.02.2016 02:00 8,3 C 86 % 1023,6 hPa 0,0 l/m 5,6 km/h (1 Bft) SW 0,00 h 0,026 mm 0,0 UV-I 0 W/m 6,2 C 8,1 C 10,2 km/h (2 Bft) 99,42 %
02.02.2016 03:00 8,0 C 85 % 1023,3 hPa 0,0 l/m 5,1 km/h (1 Bft) W 0,00 h 0,000 mm 0,0 UV-I 0 W/m 5,6 C 8,0 C 9,7 km/h (2 Bft) 98,30 %
02.02.2016 04:00 7,2 C 87 % 1022,7 hPa 0,0 l/m 3,8 km/h (1 Bft) SW 0,00 h 0,000 mm 0,0 UV-I 0 W/m 5,1 C 7,1 C 6,3 km/h (2 Bft) 98,89 %
02.02.2016 05:00 7,3 C 88 % 1022,3 hPa 0,0 l/m 9,3 km/h (2 Bft) W-SW 0,00 h 0,000 mm 0,0 UV-I 0 W/m 5,4 C 5,2 C 14,6 km/h (3 Bft) 98,55 %
02.02.2016 06:00 7,0 C 88 % 1022,1 hPa 0,0 l/m 9,4 km/h (2 Bft) SW 0,00 h 0,025 mm 0,0 UV-I 0 W/m 5,1 C 4,8 C 15,0 km/h (3 Bft) 98,36 %
02.02.2016 07:00 6,8 C 88 % 1022,2 hPa 0,0 l/m 7,0 km/h (2 Bft) S-SW 0,00 h 0,026 mm 0,0 UV-I 10 W/m 5,0 C 5,9 C 11,7 km/h (2 Bft) 99,29 %
02.02.2016 08:00 6,8 C 89 % 1022,3 hPa 0,0 l/m 8,8 km/h (2 Bft) S-SW 0,00 h 0,000 mm 0,0 UV-I 54 W/m 5,1 C 5,1 C 14,9 km/h (3 Bft) 98,14 %
02.02.2016 09:00 8,4 C 85 % 1022,0 hPa 0,0 l/m 8,9 km/h (2 Bft) SW 0,42 h 0,025 mm 0,3 UV-I 127 W/m 6,0 C 6,6 C 15,0 km/h (3 Bft) 99,15 %
02.02.2016 10:00 9,5 C 81 % 1021,8 hPa 0,0 l/m 10,3 km/h (2 Bft) S-SW 0,33 h 0,076 mm 0,7 UV-I 185 W/m 6,4 C 7,0 C 18,1 km/h (3 Bft) 98,06 %
02.02.2016 11:00 10,5 C 77 % 1021,0 hPa 0,0 l/m 11,1 km/h (2 Bft) W-SW 0,58 h 0,102 mm 1,1 UV-I 235 W/m 6,7 C 7,6 C 18,4 km/h (3 Bft) 98,97 %
02.02.2016 12:00 11,8 C 72 % 1019,8 hPa 0,0 l/m 10,5 km/h (2 Bft) W-SW 1,00 h 0,152 mm 1,3 UV-I 345 W/m 6,9 C 9,4 C 18,5 km/h (3 Bft) 98,73 %
02.02.2016 13:00 12,0 C 69 % 1018,8 hPa 0,0 l/m 11,5 km/h (2 Bft) W-SW 1,00 h 0,203 mm 1,2 UV-I 306 W/m 6,6 C 9,1 C 19,0 km/h (3 Bft) 98,06 %
02.02.2016 14:00 12,1 C 71 % 1017,7 hPa 0,0 l/m 4,3 km/h (1 Bft) W 0,92 h 0,178 mm 0,8 UV-I 231 W/m 6,9 C 11,8 C 9,8 km/h (2 Bft) 99,03 %
02.02.2016 15:00 11,5 C 72 % 1016,9 hPa 0,0 l/m 2,1 km/h (1 Bft) W 0,75 h 0,127 mm 0,4 UV-I 118 W/m 6,6 C 11,5 C 6,2 km/h (2 Bft) 99,07 %
02.02.2016 16:00 10,6 C 75 % 1016,3 hPa 0,0 l/m 0,9 km/h (0 Bft) W-NW 0,33 h 0,076 mm 0,0 UV-I 39 W/m 6,3 C 10,6 C 3,2 km/h (1 Bft) 99,22 %
02.02.2016 17:00 7,6 C 86 % 1016,0 hPa 0,0 l/m 3,2 km/h (1 Bft) S-SO 0,00 h 0,026 mm 0,0 UV-I 2 W/m 5,4 C 7,6 C 6,0 km/h (2 Bft) 97,53 %
02.02.2016 18:00 6,3 C 89 % 1015,6 hPa 0,0 l/m 3,1 km/h (1 Bft) S 0,00 h 0,000 mm 0,0 UV-I 0 W/m 4,6 C 6,3 C 5,6 km/h (1 Bft) 99,13 %
02.02.2016 19:00 5,8 C 88 % 1016,1 hPa 0,0 l/m 6,2 km/h (2 Bft) S-SW 0,00 h 0,000 mm 0,0 UV-I 0 W/m 3,9 C 5,3 C 8,9 km/h (2 Bft) 98,19 %
02.02.2016 20:00 6,3 C 86 % 1016,5 hPa 0,0 l/m 9,0 km/h (2 Bft) S-SW 0,00 h 0,000 mm 0,0 UV-I 0 W/m 4,1 C 4,1 C 13,6 km/h (3 Bft) 99,09 %
02.02.2016 21:00 6,7 C 83 % 1017,2 hPa 0,0 l/m 12,3 km/h (3 Bft) SW 0,00 h 0,025 mm 0,0 UV-I 0 W/m 4,1 C 2,8 C 19,8 km/h (4 Bft) 98,11 %
02.02.2016 22:00 8,6 C 78 % 1017,0 hPa 0,0 l/m 19,6 km/h (3 Bft) SW 0,00 h 0,026 mm 0,0 UV-I 0 W/m 4,9 C 1,7 C 31,1 km/h (5 Bft) 98,12 %
02.02.2016 23:00 8,7 C 78 % 1016,5 hPa 0,0 l/m 20,0 km/h (4 Bft) SW 0,00 h 0,050 mm 0,0 UV-I 0 W/m 5,0 C 1,7 C 32,2 km/h (5 Bft) 99,30 %
03.02.2016 00:00 8,8 C 76 % 1016,5 hPa 0,0 l/m 21,5 km/h (4 Bft) SW 0,00 h 0,000 mm 0,0 UV-I 0 W/m 4,8 C 1,3 C 33,9 km/h (5 Bft) 98,14 %
03.02.2016 01:00 8,9 C 74 % 1016,5 hPa 0,0 l/m 21,4 km/h (4 Bft) SW 0,00 h 0,051 mm 0,0 UV-I 0 W/m 4,5 C 1,4 C 35,0 km/h (5 Bft) 99,21 %
03.02.2016 02:00 9,0 C 73 % 1016,5 hPa 0,0 l/m 19,1 km/h (3 Bft) S-SW 0,00 h 0,051 mm 0,0 UV-I 0 W/m 4,4 C 2,4 C 31,4 km/h (5 Bft) 97,60 %
03.02.2016 03:00 9,5 C 70 % 1016,2 hPa 0,0 l/m 20,3 km/h (4 Bft) SW 0,00 h 0,050 mm 0,0 UV-I 0 W/m 4,3 C 2,5 C 33,0 km/h (5 Bft) 99,26 %
03.02.2016 04:00 9,6 C 70 % 1016,0 hPa 0,0 l/m 18,7 km/h (3 Bft) W-SW 0,00 h 0,077 mm 0,0 UV-I 0 W/m 4,5 C 3,3 C 31,5 km/h (5 Bft) 97,83 %
03.02.2016 05:00 7,5 C 79 % 1016,6 hPa 0,0 l/m 11,2 km/h (2 Bft) W-SW 0,00 h 0,050 mm 0,0 UV-I 0 W/m 4,0 C 4,1 C 23,5 km/h (4 Bft) 99,23 %
03.02.2016 06:00 6,8 C 79 % 1016,6 hPa 0,0 l/m 9,8 km/h (2 Bft) W 0,00 h 0,026 mm 0,0 UV-I 0 W/m 3,5 C 4,3 C 19,4 km/h (3 Bft) 98,22 %
03.02.2016 07:00 6,2 C 79 % 1016,5 hPa 0,0 l/m 11,0 km/h (2 Bft) W 0,00 h 0,025 mm 0,0 UV-I 0 W/m 2,7 C 2,7 C 19,8 km/h (4 Bft) 99,49 %
03.02.2016 08:00 5,8 C 79 % 1016,1 hPa 0,0 l/m 7,8 km/h (2 Bft) SW 0,00 h 0,026 mm 0,0 UV-I 17 W/m 2,5 C 4,6 C 13,3 km/h (3 Bft) 97,99 %
03.02.2016 09:00 5,7 C 80 % 1016,1 hPa 0,0 l/m 9,0 km/h (2 Bft) SW 0,00 h 0,025 mm 0,0 UV-I 26 W/m 2,6 C 3,5 C 14,8 km/h (3 Bft) 99,29 %
03.02.2016 10:00 5,4 C 83 % 1016,4 hPa 0,0 l/m 8,6 km/h (2 Bft) SW 0,00 h 0,025 mm 0,0 UV-I 41 W/m 2,7 C 3,6 C 16,1 km/h (3 Bft) 97,76 %
03.02.2016 11:00 4,7 C 86 % 1016,8 hPa 1,4 l/m 12,1 km/h (2 Bft) W-SW 0,00 h 0,026 mm 0,0 UV-I 30 W/m 2,5 C 0,4 C 21,2 km/h (4 Bft) 99,27 %
03.02.2016 12:00 3,6 C 92 % 1016,6 hPa 1,2 l/m 11,4 km/h (2 Bft) SW 0,00 h 0,025 mm 0,0 UV-I 40 W/m 2,4 C -0,4 C 20,0 km/h (4 Bft) 99,41 %
03.02.2016 13:00 3,2 C 93 % 1016,3 hPa 1,8 l/m 12,3 km/h (3 Bft) SW 0,00 h 0,026 mm 0,0 UV-I 35 W/m 2,2 C -1,5 C 20,8 km/h (4 Bft) 98,69 %
03.02.2016 14:00 2,8 C 94 % 1016,5 hPa 0,6 l/m 11,2 km/h (2 Bft) W-SW 0,00 h 0,025 mm 0,0 UV-I 33 W/m 2,0 C -1,1 C 18,5 km/h (3 Bft) 97,44 %
03.02.2016 15:00 2,7 C 95 % 1016,6 hPa 0,6 l/m 10,2 km/h (2 Bft) SW 0,00 h 0,025 mm 0,0 UV-I 25 W/m 2,0 C -0,5 C 18,6 km/h (3 Bft) 99,30 %
03.02.2016 16:00 2,8 C 94 % 1016,5 hPa 0,2 l/m 13,7 km/h (3 Bft) SW 0,00 h 0,026 mm 0,0 UV-I 10 W/m 1,9 C -2,8 C 22,5 km/h (4 Bft) 97,88 %
03.02.2016 17:00 2,7 C 94 % 1016,5 hPa 0,2 l/m 12,1 km/h (2 Bft) SW 0,00 h 0,000 mm 0,0 UV-I 0 W/m 1,9 C -1,9 C 20,5 km/h (4 Bft) 99,00 %
03.02.2016 18:00 2,8 C 94 % 1017,0 hPa 0,0 l/m 14,3 km/h (3 Bft) SW 0,00 h 0,000 mm 0,0 UV-I 0 W/m 1,9 C -3,2 C 23,6 km/h (4 Bft) 98,37 %
03.02.2016 19:00 2,9 C 94 % 1017,5 hPa 0,0 l/m 12,0 km/h (2 Bft) W-SW 0,00 h 0,000 mm 0,0 UV-I 0 W/m 2,0 C -1,6 C 20,1 km/h (4 Bft) 98,58 %
03.02.2016 20:00 2,9 C 94 % 1018,1 hPa 0,0 l/m 12,1 km/h (2 Bft) W-SW 0,00 h 0,000 mm 0,0 UV-I 0 W/m 2,1 C -1,7 C 19,8 km/h (4 Bft) 98,96 %
03.02.2016 21:00 3,1 C 94 % 1019,1 hPa 0,2 l/m 13,3 km/h (3 Bft) W-SW 0,00 h 0,000 mm 0,0 UV-I 0 W/m 2,2 C -2,2 C 21,6 km/h (4 Bft) 98,51 %
03.02.2016 22:00 3,2 C 86 % 1020,6 hPa 0,0 l/m 19,6 km/h (3 Bft) W 0,00 h 0,000 mm 0,0 UV-I 0 W/m 1,0 C -5,3 C 38,5 km/h (5 Bft) 98,84 %
03.02.2016 23:00 2,4 C 81 % 1022,3 hPa 0,0 l/m 21,1 km/h (4 Bft) W-SW 0,00 h 0,025 mm 0,0 UV-I 0 W/m -0,5 C -7,0 C 37,6 km/h (5 Bft) 97,65 %
04.02.2016 00:00 2,0 C 81 % 1023,2 hPa 0,0 l/m 17,8 km/h (3 Bft) W-SW 0,00 h 0,000 mm 0,0 UV-I 0 W/m -0,8 C -5,8 C 30,0 km/h (5 Bft) 99,04 %
04.02.2016 01:00 2,0 C 85 % 1023,6 hPa 0,0 l/m 13,5 km/h (3 Bft) W 0,00 h 0,025 mm 0,0 UV-I 0 W/m -0,2 C -3,5 C 23,7 km/h (4 Bft) 97,72 %
04.02.2016 02:00 2,1 C 84 % 1023,9 hPa 0,0 l/m 10,8 km/h (2 Bft) W-SW 0,00 h 0,026 mm 0,0 UV-I 0 W/m -0,2 C -1,6 C 18,4 km/h (3 Bft) 99,50 %
04.02.2016 03:00 2,0 C 85 % 1023,7 hPa 0,0 l/m 15,3 km/h (3 Bft) W-SW 0,00 h 0,025 mm 0,0 UV-I 0 W/m -0,3 C -4,6 C 25,5 km/h (4 Bft) 97,83 %
04.02.2016 04:00 2,3 C 82 % 1024,1 hPa 0,0 l/m 18,4 km/h (3 Bft) W 0,00 h 0,026 mm 0,0 UV-I 0 W/m -0,4 C -5,8 C 32,0 km/h (5 Bft) 99,36 %
04.02.2016 05:00 2,2 C 82 % 1024,8 hPa 0,0 l/m 17,6 km/h (3 Bft) W-SW 0,00 h 0,025 mm 0,0 UV-I 0 W/m -0,6 C -5,6 C 30,2 km/h (5 Bft) 97,83 %
04.02.2016 06:00 1,9 C 81 % 1024,7 hPa 0,0 l/m 16,6 km/h (3 Bft) W-SW 0,00 h 0,025 mm 0,0 UV-I 0 W/m -1,0 C -5,5 C 27,4 km/h (4 Bft) 99,28 %
04.02.2016 07:00 1,5 C 87 % 1025,1 hPa 0,0 l/m 16,2 km/h (3 Bft) W-SW 0,00 h 0,026 mm 0,0 UV-I 7 W/m -0,4 C -5,8 C 27,6 km/h (4 Bft) 97,89 %
04.02.2016 08:00 1,5 C 90 % 1025,4 hPa 0,0 l/m 16,1 km/h (3 Bft) W-SW 0,00 h 0,025 mm 0,0 UV-I 35 W/m 0,0 C -5,8 C 26,0 km/h (4 Bft) 99,42 %
04.02.2016 09:00 2,2 C 86 % 1025,5 hPa 0,0 l/m 15,7 km/h (3 Bft) W-SW 0,00 h 0,026 mm 0,0 UV-I 92 W/m 0,1 C -4,6 C 26,5 km/h (4 Bft) 98,16 %
04.02.2016 10:00 3,0 C 80 % 1025,7 hPa 0,0 l/m 18,1 km/h (3 Bft) W-SW 0,00 h 0,050 mm 0,5 UV-I 132 W/m -0,0 C -4,8 C 29,1 km/h (5 Bft) 98,99 %
04.02.2016 11:00 3,6 C 77 % 1025,4 hPa 0,0 l/m 18,5 km/h (3 Bft) W 0,00 h 0,077 mm 0,5 UV-I 109 W/m -0,0 C -4,3 C 32,2 km/h (5 Bft) 98,01 %
04.02.2016 12:00 3,5 C 80 % 1024,9 hPa 0,0 l/m 25,0 km/h (4 Bft) W-SW 0,33 h 0,076 mm 0,9 UV-I 210 W/m 0,4 C -6,9 C 41,4 km/h (6 Bft) 99,15 %
04.02.2016 13:00 3,0 C 85 % 1024,3 hPa 0,0 l/m 20,3 km/h (4 Bft) SW 0,08 h 0,101 mm 0,5 UV-I 138 W/m 0,7 C -5,8 C 33,4 km/h (5 Bft) 98,01 %
04.02.2016 14:00 3,3 C 81 % 1023,5 hPa 0,0 l/m 20,7 km/h (4 Bft) W-SW 0,00 h 0,077 mm 0,4 UV-I 99 W/m 0,3 C -5,5 C 34,9 km/h (5 Bft) 99,36 %
04.02.2016 15:00 3,5 C 78 % 1023,4 hPa 0,0 l/m 20,4 km/h (4 Bft) W-SW 0,00 h 0,076 mm 0,0 UV-I 86 W/m 0,0 C -5,2 C 34,3 km/h (5 Bft) 98,16 %
04.02.2016 16:00 3,4 C 79 % 1022,8 hPa 0,0 l/m 17,4 km/h (3 Bft) W-SW 0,00 h 0,076 mm 0,0 UV-I 19 W/m 0,1 C -4,0 C 30,1 km/h (5 Bft) 99,44 %
04.02.2016 17:00 2,7 C 85 % 1022,2 hPa 0,0 l/m 15,1 km/h (3 Bft) SW 0,00 h 0,025 mm 0,0 UV-I 2 W/m 0,5 C -3,7 C 25,3 km/h (4 Bft) 97,59 %
04.02.2016 18:00 1,9 C 91 % 1021,6 hPa 0,0 l/m 15,0 km/h (3 Bft) SW 0,00 h 0,026 mm 0,0 UV-I 0 W/m 0,6 C -4,6 C 25,1 km/h (4 Bft) 99,42 %
04.02.2016 19:00 1,7 C 92 % 1020,7 hPa 0,2 l/m 10,0 km/h (2 Bft) SW 0,00 h 0,000 mm 0,0 UV-I 0 W/m 0,6 C -1,5 C 17,8 km/h (3 Bft) 98,08 %
04.02.2016 20:00 1,3 C 94 % 1020,0 hPa 0,4 l/m 6,1 km/h (2 Bft) S-SW 0,00 h 0,000 mm 0,0 UV-I 0 W/m 0,4 C 0,4 C 12,2 km/h (2 Bft) 99,08 %
04.02.2016 21:00 1,2 C 95 % 1019,6 hPa 0,6 l/m 8,7 km/h (2 Bft) W-SW 0,00 h 0,000 mm 0,0 UV-I 0 W/m 0,5 C -2,0 C 15,4 km/h (3 Bft) 98,22 %
04.02.2016 22:00 1,6 C 95 % 1019,9 hPa 1,0 l/m 15,2 km/h (3 Bft) W-SW 0,00 h 0,000 mm 0,0 UV-I 0 W/m 0,9 C -5,0 C 24,4 km/h (4 Bft) 98,72 %
04.02.2016 23:00 2,3 C 95 % 1020,7 hPa 0,2 l/m 12,8 km/h (3 Bft) W 0,00 h 0,000 mm 0,0 UV-I 0 W/m 1,5 C -2,9 C 22,4 km/h (4 Bft) 98,40 %
05.02.2016 00:00 2,3 C 94 % 1021,6 hPa 0,2 l/m 13,2 km/h (3 Bft) W-SW 0,00 h 0,000 mm 0,0 UV-I 0 W/m 1,4 C -3,1 C 23,0 km/h (4 Bft) 98,46 %
05.02.2016 01:00 2,1 C 94 % 1022,2 hPa 0,0 l/m 10,2 km/h (2 Bft) W-SW 0,00 h 0,000 mm 0,0 UV-I 0 W/m 1,2 C -1,3 C 18,9 km/h (3 Bft) 98,84 %
05.02.2016 02:00 2,2 C 93 % 1023,6 hPa 0,0 l/m 2,5 km/h (1 Bft) W 0,00 h 0,000 mm 0,0 UV-I 0 W/m 1,1 C 2,2 C 6,6 km/h (2 Bft) 98,16 %
05.02.2016 03:00 1,9 C 93 % 1024,5 hPa 0,0 l/m 8,4 km/h (2 Bft) W-SW 0,00 h 0,000 mm 0,0 UV-I 0 W/m 0,9 C -0,3 C 16,9 km/h (3 Bft) 99,09 %
05.02.2016 04:00 1,8 C 92 % 1025,2 hPa 0,0 l/m 14,4 km/h (3 Bft) W-SW 0,00 h 0,000 mm 0,0 UV-I 0 W/m 0,7 C -4,4 C 22,8 km/h (4 Bft) 98,01 %
05.02.2016 05:00 1,9 C 91 % 1026,1 hPa 0,0 l/m 10,3 km/h (2 Bft) W-SW 0,00 h 0,000 mm 0,0 UV-I 0 W/m 0,6 C -1,4 C 17,0 km/h (3 Bft) 99,02 %
05.02.2016 06:00 1,9 C 90 % 1027,2 hPa 0,0 l/m 11,6 km/h (2 Bft) W-SW 0,00 h 0,000 mm 0,0 UV-I 0 W/m 0,5 C -2,5 C 18,5 km/h (3 Bft) 98,15 %
05.02.2016 07:00 2,0 C 89 % 1028,3 hPa 0,0 l/m 8,8 km/h (2 Bft) W-SW 0,00 h 0,000 mm 0,0 UV-I 8 W/m 0,4 C -0,2 C 15,2 km/h (3 Bft) 99,06 %
05.02.2016 08:00 2,1 C 88 % 1029,0 hPa 0,0 l/m 8,1 km/h (2 Bft) W 0,00 h 0,000 mm 0,0 UV-I 40 W/m 0,3 C 0,5 C 14,9 km/h (3 Bft) 97,71 %
05.02.2016 09:00 2,7 C 87 % 1029,4 hPa 0,0 l/m 8,3 km/h (2 Bft) W-SW 0,67 h 0,025 mm 0,4 UV-I 179 W/m 0,8 C 0,9 C 15,3 km/h (3 Bft) 99,08 %
05.02.2016 10:00 3,2 C 84 % 1029,6 hPa 0,0 l/m 6,3 km/h (2 Bft) W 0,17 h 0,077 mm 0,1 UV-I 87 W/m 0,8 C 2,4 C 12,8 km/h (3 Bft) 98,04 %
05.02.2016 11:00 4,2 C 77 % 1029,4 hPa 0,0 l/m 11,4 km/h (2 Bft) W-SW 0,50 h 0,050 mm 1,0 UV-I 340 W/m 0,5 C 0,3 C 19,3 km/h (3 Bft) 98,76 %
05.02.2016 12:00 4,2 C 77 % 1029,0 hPa 0,0 l/m 12,0 km/h (2 Bft) W-SW 0,00 h 0,153 mm 0,8 UV-I 177 W/m 0,5 C -0,2 C 20,6 km/h (4 Bft) 98,40 %
05.02.2016 13:00 4,1 C 78 % 1028,5 hPa 0,0 l/m 10,5 km/h (2 Bft) W-SW 0,00 h 0,101 mm 0,4 UV-I 105 W/m 0,5 C 0,8 C 17,4 km/h (3 Bft) 98,87 %
05.02.2016 14:00 3,7 C 85 % 1028,1 hPa 0,0 l/m 10,2 km/h (2 Bft) W-SW 0,00 h 0,051 mm 0,0 UV-I 95 W/m 1,4 C 0,6 C 17,4 km/h (3 Bft) 98,64 %
05.02.2016 15:00 4,0 C 86 % 1027,8 hPa 0,0 l/m 8,3 km/h (2 Bft) W-SW 0,00 h 0,051 mm 0,0 UV-I 83 W/m 1,8 C 2,3 C 14,1 km/h (3 Bft) 98,71 %
05.02.2016 16:00 4,1 C 87 % 1027,4 hPa 0,0 l/m 3,9 km/h (1 Bft) W 0,00 h 0,051 mm 0,0 UV-I 37 W/m 2,1 C 3,7 C 7,5 km/h (2 Bft) 98,38 %
05.02.2016 17:00 3,8 C 89 % 1027,6 hPa 0,0 l/m 1,0 km/h (0 Bft) N-NW 0,00 h 0,025 mm 0,0 UV-I 2 W/m 2,1 C 3,8 C 2,7 km/h (1 Bft) 99,00 %
05.02.2016 18:00 3,5 C 91 % 1027,8 hPa 0,0 l/m 0,6 km/h (0 Bft) N-NW 0,00 h 0,000 mm 0,0 UV-I 0 W/m 2,2 C 3,5 C 2,0 km/h (1 Bft) 98,57 %
05.02.2016 19:00 3,3 C 93 % 1028,0 hPa 0,0 l/m 0,4 km/h (0 Bft) SO 0,00 h 0,000 mm 0,0 UV-I 0 W/m 2,3 C 3,3 C 1,2 km/h (1 Bft) 99,45 %
05.02.2016 20:00 3,2 C 93 % 1027,6 hPa 0,0 l/m 0,9 km/h (0 Bft) SO 0,00 h 0,000 mm 0,0 UV-I 0 W/m 2,2 C 3,2 C 2,4 km/h (1 Bft) 98,13 %
05.02.2016 21:00 2,5 C 95 % 1027,5 hPa 0,0 l/m 0,8 km/h (0 Bft) SO 0,00 h 0,000 mm 0,0 UV-I 0 W/m 1,7 C 2,5 C 2,4 km/h (1 Bft) 99,65 %
05.02.2016 22:00 1,8 C 96 % 1027,1 hPa 0,0 l/m 1,0 km/h (0 Bft) O-NO 0,00 h 0,000 mm 0,0 UV-I 0 W/m 1,2 C 1,8 C 3,2 km/h (1 Bft) 97,93 %
05.02.2016 23:00 1,2 C 96 % 1026,6 hPa 0,0 l/m 2,7 km/h (1 Bft) N-NO 0,00 h 0,000 mm 0,0 UV-I 0 W/m 0,6 C 1,2 C 4,5 km/h (1 Bft) 99,02 %
06.02.2016 00:00 1,4 C 97 % 1026,1 hPa 0,0 l/m 3,9 km/h (1 Bft) O-NO 0,00 h 0,000 mm 0,0 UV-I 0 W/m 0,9 C 1,4 C 7,0 km/h (2 Bft) 96,13 %
06.02.2016 01:00 0,9 C 97 % 1025,6 hPa 0,0 l/m 2,8 km/h (1 Bft) O-NO 0,00 h 0,000 mm 0,0 UV-I 0 W/m 0,5 C 0,9 C 4,5 km/h (1 Bft) 99,27 %
06.02.2016 02:00 0,8 C 97 % 1025,1 hPa 0,0 l/m 3,5 km/h (1 Bft) O-NO 0,00 h 0,000 mm 0,0 UV-I 0 W/m 0,3 C 0,8 C 6,0 km/h (2 Bft) 97,79 %
06.02.2016 03:00 -0,6 C 97 % 1024,5 hPa 0,0 l/m 1,0 km/h (0 Bft) O-NO 0,00 h 0,000 mm 0,0 UV-I 0 W/m -1,0 C -0,6 C 2,7 km/h (1 Bft) 99,08 %
06.02.2016 04:00 -1,3 C 98 % 1024,2 hPa 0,0 l/m 0,7 km/h (0 Bft) O-NO 0,00 h 0,000 mm 0,0 UV-I 0 W/m -1,7 C -1,3 C 2,3 km/h (1 Bft) 98,44 %
06.02.2016 05:00 -1,4 C 98 % 1023,8 hPa 0,0 l/m 0,4 km/h (0 Bft) N 0,00 h 0,000 mm 0,0 UV-I 0 W/m -1,7 C -1,4 C 1,7 km/h (1 Bft) 98,63 %
06.02.2016 06:00 -2,1 C 98 % 1023,5 hPa 0,0 l/m 1,6 km/h (1 Bft) S 0,00 h 0,000 mm 0,0 UV-I 0 W/m -2,3 C -2,1 C 3,2 km/h (1 Bft) 98,16 %
06.02.2016 07:00 -1,9 C 98 % 1023,6 hPa 0,0 l/m 1,8 km/h (1 Bft) S-SW 0,00 h 0,000 mm 0,0 UV-I 10 W/m -2,2 C -1,9 C 3,7 km/h (1 Bft) 98,82 %
06.02.2016 08:00 -1,7 C 98 % 1023,9 hPa 0,0 l/m 0,2 km/h (0 Bft) S-SW 0,00 h 0,000 mm 0,0 UV-I 48 W/m -2,0 C -1,7 C 0,9 km/h (0 Bft) 98,58 %
06.02.2016 09:00 -1,0 C 98 % 1023,6 hPa 0,0 l/m 0,3 km/h (0 Bft) S-SW 0,00 h 0,025 mm 0,0 UV-I 111 W/m -1,3 C -1,0 C 1,9 km/h (1 Bft) 98,50 %
06.02.2016 10:00 -0,1 C 98 % 1023,2 hPa 0,0 l/m 2,1 km/h (1 Bft) NO 0,42 h 0,026 mm 0,7 UV-I 199 W/m -0,3 C -0,1 C 4,7 km/h (1 Bft) 99,05 %
06.02.2016 11:00 1,7 C 98 % 1022,7 hPa 0,0 l/m 3,5 km/h (1 Bft) NO 0,83 h 0,076 mm 1,0 UV-I 294 W/m 1,4 C 1,7 C 6,4 km/h (2 Bft) 98,76 %
06.02.2016 12:00 3,3 C 98 % 1021,8 hPa 0,0 l/m 2,0 km/h (1 Bft) N-NO 0,92 h 0,102 mm 1,3 UV-I 357 W/m 3,1 C 3,3 C 4,9 km/h (1 Bft) 98,36 %
06.02.2016 13:00 5,2 C 93 % 1020,8 hPa 0,0 l/m 1,6 km/h (1 Bft) N-NO 1,00 h 0,127 mm 1,1 UV-I 346 W/m 4,1 C 5,2 C 4,3 km/h (1 Bft) 99,64 %
06.02.2016 14:00 6,7 C 86 % 1019,8 hPa 0,0 l/m 1,9 km/h (1 Bft) NO 1,00 h 0,127 mm 0,7 UV-I 285 W/m 4,5 C 6,7 C 4,5 km/h (1 Bft) 98,65 %
06.02.2016 15:00 7,6 C 83 % 1019,0 hPa 0,0 l/m 4,9 km/h (1 Bft) NO 1,00 h 0,127 mm 0,5 UV-I 165 W/m 4,9 C 7,5 C 8,9 km/h (2 Bft) 99,15 %
06.02.2016 16:00 6,7 C 85 % 1018,2 hPa 0,0 l/m 6,1 km/h (2 Bft) NO 0,08 h 0,076 mm 0,0 UV-I 44 W/m 4,3 C 6,3 C 9,4 km/h (2 Bft) 98,22 %
06.02.2016 17:00 5,2 C 91 % 1017,4 hPa 0,0 l/m 3,2 km/h (1 Bft) O-NO 0,00 h 0,025 mm 0,0 UV-I 6 W/m 3,9 C 5,2 C 5,3 km/h (1 Bft) 99,34 %
06.02.2016 18:00 4,5 C 92 % 1016,4 hPa 0,0 l/m 4,3 km/h (1 Bft) N-NO 0,00 h 0,000 mm 0,0 UV-I 0 W/m 3,3 C 4,5 C 7,5 km/h (2 Bft) 98,01 %
06.02.2016 19:00 3,7 C 92 % 1015,7 hPa 0,0 l/m 3,6 km/h (1 Bft) NO 0,00 h 0,000 mm 0,0 UV-I 0 W/m 2,5 C 3,7 C 5,7 km/h (1 Bft) 99,49 %
06.02.2016 20:00 2,5 C 95 % 1015,1 hPa 0,0 l/m 2,4 km/h (1 Bft) S 0,00 h 0,000 mm 0,0 UV-I 0 W/m 1,8 C 2,5 C 4,9 km/h (1 Bft) 97,80 %
06.02.2016 21:00 1,7 C 96 % 1014,3 hPa 0,0 l/m 2,5 km/h (1 Bft) SW 0,00 h 0,000 mm 0,0 UV-I 0 W/m 1,1 C 1,7 C 4,5 km/h (1 Bft) 99,20 %
06.02.2016 22:00 0,8 C 97 % 1013,7 hPa 0,0 l/m 2,4 km/h (1 Bft) S 0,00 h 0,000 mm 0,0 UV-I 0 W/m 0,4 C 0,8 C 4,8 km/h (1 Bft) 98,80 %
06.02.2016 23:00 1,1 C 98 % 1012,9 hPa 0,0 l/m 1,9 km/h (1 Bft) SW 0,00 h 0,000 mm 0,0 UV-I 0 W/m 0,8 C 1,1 C 4,1 km/h (1 Bft) 97,89 %
07.02.2016 00:00 0,9 C 97 % 1012,1 hPa 0,0 l/m 1,8 km/h (1 Bft) O-NO 0,00 h 0,000 mm 0,0 UV-I 0 W/m 0,5 C 0,9 C 3,7 km/h (1 Bft) 99,58 %
07.02.2016 01:00 1,1 C 97 % 1011,2 hPa 0,0 l/m 2,7 km/h (1 Bft) O-NO 0,00 h 0,000 mm 0,0 UV-I 0 W/m 0,6 C 1,1 C 5,1 km/h (1 Bft) 98,09 %
07.02.2016 02:00 0,2 C 97 % 1010,2 hPa 0,0 l/m 2,2 km/h (1 Bft) O-NO 0,00 h 0,000 mm 0,0 UV-I 0 W/m -0,3 C 0,2 C 5,2 km/h (1 Bft) 98,84 %
07.02.2016 03:00 -0,6 C 97 % 1009,5 hPa 0,0 l/m 1,9 km/h (1 Bft) O-NO 0,00 h 0,000 mm 0,0 UV-I 0 W/m -1,0 C -0,6 C 4,7 km/h (1 Bft) 97,67 %
07.02.2016 04:00 -1,1 C 98 % 1009,3 hPa 0,0 l/m 1,7 km/h (1 Bft) S 0,00 h 0,000 mm 0,0 UV-I 0 W/m -1,4 C -1,1 C 3,9 km/h (1 Bft) 98,49 %
07.02.2016 05:00 -1,6 C 98 % 1009,3 hPa 0,0 l/m 3,6 km/h (1 Bft) S-SW 0,00 h 0,000 mm 0,0 UV-I 0 W/m -1,9 C -1,6 C 6,0 km/h (2 Bft) 97,71 %
07.02.2016 06:00 -2,2 C 97 % 1009,2 hPa 0,0 l/m 3,3 km/h (1 Bft) S-SW 0,00 h 0,000 mm 0,0 UV-I 0 W/m -2,6 C -2,2 C 5,9 km/h (2 Bft) 98,31 %
07.02.2016 07:00 -2,4 C 98 % 1009,5 hPa 0,0 l/m 2,0 km/h (1 Bft) S-SO 0,00 h 0,000 mm 0,0 UV-I 13 W/m -2,8 C -2,4 C 4,5 km/h (1 Bft) 98,27 %
07.02.2016 08:00 -2,2 C 98 % 1009,6 hPa 0,0 l/m 1,6 km/h (1 Bft) S-SW 0,00 h 0,000 mm 0,0 UV-I 51 W/m -2,5 C -2,2 C 3,7 km/h (1 Bft) 98,57 %
07.02.2016 09:00 -0,8 C 98 % 1009,2 hPa 0,0 l/m 1,3 km/h (1 Bft) NO 0,17 h 0,025 mm 0,4 UV-I 134 W/m -1,1 C -0,8 C 3,7 km/h (1 Bft) 97,80 %
07.02.2016 10:00 1,2 C 96 % 1009,0 hPa 0,0 l/m 7,5 km/h (2 Bft) NO 0,17 h 0,051 mm 0,6 UV-I 178 W/m 0,7 C -0,1 C 13,6 km/h (3 Bft) 98,57 %
07.02.2016 11:00 2,6 C 94 % 1008,6 hPa 0,0 l/m 8,1 km/h (2 Bft) O-NO 0,58 h 0,051 mm 1,0 UV-I 250 W/m 1,8 C 1,1 C 13,0 km/h (3 Bft) 98,44 %
07.02.2016 12:00 4,7 C 90 % 1007,6 hPa 0,0 l/m 7,9 km/h (2 Bft) NO 0,83 h 0,102 mm 1,2 UV-I 377 W/m 3,1 C 3,3 C 13,5 km/h (3 Bft) 98,70 %
07.02.2016 13:00 6,7 C 85 % 1006,5 hPa 0,0 l/m 11,1 km/h (2 Bft) NO 1,00 h 0,152 mm 1,1 UV-I 439 W/m 4,3 C 3,3 C 18,1 km/h (3 Bft) 98,72 %
07.02.2016 14:00 7,6 C 82 % 1006,0 hPa 0,0 l/m 9,5 km/h (2 Bft) NO 0,58 h 0,203 mm 0,7 UV-I 239 W/m 4,8 C 5,4 C 16,6 km/h (3 Bft) 97,87 %
07.02.2016 15:00 7,3 C 85 % 1005,7 hPa 0,0 l/m 4,8 km/h (1 Bft) NO 0,00 h 0,102 mm 0,0 UV-I 61 W/m 5,0 C 7,3 C 8,7 km/h (2 Bft) 99,50 %
07.02.2016 16:00 6,8 C 87 % 1006,0 hPa 0,0 l/m 0,8 km/h (0 Bft) N 0,00 h 0,025 mm 0,0 UV-I 40 W/m 4,7 C 6,8 C 2,4 km/h (1 Bft) 97,95 %
07.02.2016 17:00 5,1 C 91 % 1006,6 hPa 0,0 l/m 1,6 km/h (1 Bft) S 0,08 h 0,026 mm 0,0 UV-I 6 W/m 3,8 C 5,1 C 3,9 km/h (1 Bft) 99,09 %
07.02.2016 18:00 3,8 C 94 % 1006,9 hPa 0,0 l/m 2,1 km/h (1 Bft) S 0,00 h 0,000 mm 0,0 UV-I 0 W/m 3,0 C 3,8 C 4,9 km/h (1 Bft) 98,01 %
07.02.2016 19:00 3,1 C 96 % 1007,6 hPa 0,0 l/m 2,4 km/h (1 Bft) S 0,00 h 0,000 mm 0,0 UV-I 0 W/m 2,5 C 2,8 C 5,2 km/h (1 Bft) 99,36 %
07.02.2016 20:00 3,7 C 94 % 1009,4 hPa 0,0 l/m 5,5 km/h (1 Bft) SW 0,00 h 0,000 mm 0,0 UV-I 0 W/m 2,8 C 3,2 C 10,1 km/h (2 Bft) 97,51 %
07.02.2016 21:00 5,3 C 87 % 1010,9 hPa 0,0 l/m 10,3 km/h (2 Bft) SW 0,00 h 0,000 mm 0,0 UV-I 0 W/m 3,3 C 2,2 C 16,2 km/h (3 Bft) 99,52 %
07.02.2016 22:00 6,0 C 85 % 1012,0 hPa 0,0 l/m 9,9 km/h (2 Bft) SW 0,00 h 0,025 mm 0,0 UV-I 0 W/m 3,6 C 3,4 C 15,3 km/h (3 Bft) 98,07 %
07.02.2016 23:00 6,1 C 85 % 1012,7 hPa 0,0 l/m 6,3 km/h (2 Bft) SW 0,00 h 0,025 mm 0,0 UV-I 0 W/m 3,8 C 5,9 C 11,0 km/h (2 Bft) 98,88 %
Min-Datum _ 07.02.16 02.02.16 07.02.16 - 02.02.16 - - - - - 07.02.16 03.02.16 05.02.16 06.02.16
_ Min-Zeit 07:25 13:55 15:55 - 16:50 - - - - - 07:25 23:05 18:25 00:05
Minimum _ -2,6 C 68 % 1005,5 hPa - 0,0 km/h (0 Bft) - - - - - -3,0 C -8,3 C 0,0 km/h (0 Bft) 76,74 %
Max-Datum _ 01.02.16 01.02.16 05.02.16 01.02.16 04.02.16 - 06.02.16 02.02.16 02.02.16 05.02.16 01.02.16 02.02.16 01.02.16 01.02.16
_ Max-Zeit 15:20 01:30 10:40 03:00 12:20 - 10:05 13:00 12:00 11:30 08:35 14:15 09:55 00:55
Maximum _ 13,7 C 99 % 1029,7 hPa 3,4 l/m 31,8 km/h
W-SW (5 Bft)
- 0,17 h 0,203 mm 1,4 UV-I 555 W/m 10,6 C 12,1 C 54,7 km/h
W-SW (7 Bft)
100,00 %
Durchschnitt _ 4,6 C 88 % 1019,3 hPa #28,2 l/m 9,4 km/h (2 Bft) W-SW #16:35 h #5,409 mm 0,7 UV-I 110 W/m 2,8 C 1,8 C 16,2 km/h (3 Bft) 98,59 %